Time;durP1;ratioP1;P1;durP2;ratioP2;P2;SDS_P1;SDS_P2;PMS_P1;PMS_P2;Temp;Humidity;BMP_temperature;BMP_pressure;BME280_temperature;BME280_humidity;BME280_pressure;Samples;Min_cycle;Max_cycle;Signal;HPM_P1;HPM_P2
2022/07/27 00:00:24;;;;;;;5.50;1.40;;;15.80;99.90;;;;;;5115962;27;20040;-71
2022/07/27 00:02:51;;;;;;;4.13;1.50;;;15.80;99.90;;;;;;5112251;28;20385;-71
2022/07/27 00:05:18;;;;;;;3.92;1.60;;;15.80;99.90;;;;;;5112835;28;20120;-71
2022/07/27 00:07:44;;;;;;;6.20;1.88;;;15.80;99.90;;;;;;5111995;28;20044;-71
2022/07/27 00:10:10;;;;;;;7.10;1.50;;;15.80;99.90;;;;;;5113275;28;20434;-71
2022/07/27 00:12:36;;;;;;;5.47;1.77;;;16.40;99.90;;;;;;5113442;28;20036;-71
2022/07/27 00:15:02;;;;;;;7.50;1.60;;;15.90;99.90;;;;;;5112096;28;20092;-71
2022/07/27 00:17:28;;;;;;;7.82;1.60;;;15.90;99.90;;;;;;5113404;28;20092;-71
2022/07/27 00:19:53;;;;;;;6.28;1.80;;;15.80;99.90;;;;;;5113369;28;20197;-71
2022/07/27 00:22:19;;;;;;;6.35;1.60;;;15.80;99.90;;;;;;5112863;28;20454;-71
2022/07/27 00:24:45;;;;;;;5.43;1.48;;;15.80;99.90;;;;;;5112695;28;20114;-71
2022/07/27 00:27:10;;;;;;;3.45;1.52;;;15.80;99.90;;;;;;5112897;28;20043;-71
2022/07/27 00:29:36;;;;;;;7.22;1.73;;;15.90;99.90;;;;;;5109647;28;20147;-71
2022/07/27 00:32:01;;;;;;;4.95;1.48;;;15.80;99.90;;;;;;5112630;28;20566;-71
2022/07/27 00:34:28;;;;;;;7.50;1.55;;;15.80;99.90;;;;;;5112993;28;20039;-71
2022/07/27 00:36:53;;;;;;;4.43;1.80;;;15.80;99.90;;;;;;5113190;28;20043;-71
2022/07/27 00:39:19;;;;;;;4.63;1.70;;;15.90;99.90;;;;;;5112997;28;20116;-72
2022/07/27 00:41:45;;;;;;;5.78;1.80;;;15.90;99.90;;;;;;5113101;28;20031;-71
2022/07/27 00:44:11;;;;;;;7.05;1.92;;;15.90;99.90;;;;;;5112938;28;20039;-71
2022/07/27 00:46:37;;;;;;;5.13;1.70;;;15.80;99.90;;;;;;5112351;28;20091;-72
2022/07/27 00:49:02;;;;;;;7.65;1.65;;;15.90;99.90;;;;;;5112165;28;20082;-71
2022/07/27 00:51:28;;;;;;;6.25;1.60;;;16.20;99.90;;;;;;5113216;28;20127;-71
2022/07/27 00:53:55;;;;;;;6.88;1.77;;;16.20;99.90;;;;;;5093074;28;20075;-72
2022/07/27 00:56:21;;;;;;;7.45;1.52;;;15.70;99.90;;;;;;5111892;28;20043;-72
2022/07/27 00:58:49;;;;;;;6.78;1.80;;;15.70;99.90;;;;;;5112845;28;20036;-71
2022/07/27 01:01:17;;;;;;;5.05;1.80;;;15.60;99.90;;;;;;5130851;27;20468;-72
2022/07/27 01:03:44;;;;;;;6.57;2.03;;;15.50;99.90;;;;;;5112449;28;20038;-72
2022/07/27 01:06:10;;;;;;;6.00;1.80;;;15.50;99.90;;;;;;5113193;28;20035;-72
2022/07/27 01:08:36;;;;;;;4.60;1.58;;;15.40;99.90;;;;;;5115570;28;20035;-72
2022/07/27 01:11:02;;;;;;;4.45;1.75;;;15.70;99.90;;;;;;5115030;28;20039;-72
2022/07/27 01:13:28;;;;;;;7.97;1.95;;;15.40;99.90;;;;;;5116822;28;20500;-71
2022/07/27 01:15:55;;;;;;;4.85;1.70;;;15.40;99.90;;;;;;5116964;28;20043;-72
2022/07/27 01:18:38;;;;;;;5.35;1.95;;;15.50;99.90;;;;;;5114705;28;20501;-71
2022/07/27 01:21:07;;;;;;;7.32;1.73;;;15.30;99.90;;;;;;5116321;28;20047;-71
2022/07/27 01:23:33;;;;;;;8.63;2.22;;;15.30;99.90;;;;;;5117033;28;20049;-72
2022/07/27 01:26:02;;;;;;;7.95;1.95;;;15.30;99.90;;;;;;5111751;28;20165;-72
2022/07/27 01:28:28;;;;;;;7.43;2.00;;;15.30;99.90;;;;;;5116515;28;20096;-72
2022/07/27 01:30:55;;;;;;;5.10;1.63;;;15.30;99.90;;;;;;5116384;28;20054;-72
2022/07/27 01:33:27;;;;;;;6.90;1.80;;;15.30;99.90;;;;;;5114964;28;20044;-72
2022/07/27 01:35:54;;;;;;;10.25;2.30;;;15.30;99.90;;;;;;5115364;28;20458;-72
2022/07/27 01:38:21;;;;;;;7.95;2.05;;;15.30;99.90;;;;;;5116409;28;20452;-71
2022/07/27 01:40:48;;;;;;;6.40;1.85;;;15.30;99.90;;;;;;5115364;28;20053;-72
2022/07/27 01:43:13;;;;;;;5.38;1.83;;;15.30;99.90;;;;;;5115291;28;20048;-71
2022/07/27 01:45:39;;;;;;;17.23;2.40;;;15.30;99.90;;;;;;5115034;28;20561;-72
2022/07/27 01:48:05;;;;;;;8.82;1.90;;;15.50;99.90;;;;;;5098810;28;20438;-72
2022/07/27 01:50:31;;;;;;;5.85;2.08;;;15.20;99.90;;;;;;5096125;28;20036;-72
2022/07/27 01:52:56;;;;;;;9.15;1.92;;;15.90;99.90;;;;;;5096204;28;20404;-73
2022/07/27 01:55:22;;;;;;;9.38;1.90;;;15.10;99.90;;;;;;5110061;28;20487;-72
2022/07/27 01:57:48;;;;;;;6.88;1.63;;;15.10;99.90;;;;;;5147947;27;20044;-71
2022/07/27 02:00:14;;;;;;;4.47;1.55;;;15.50;99.90;;;;;;5116255;28;20043;-72
2022/07/27 02:02:40;;;;;;;5.22;1.75;;;15.00;99.90;;;;;;5116013;28;20058;-72
2022/07/27 02:05:06;;;;;;;9.35;1.83;;;15.00;99.90;;;;;;5095632;28;20044;-71
2022/07/27 02:07:32;;;;;;;10.57;2.00;;;14.90;99.90;;;;;;5116079;28;20043;-72
2022/07/27 02:09:57;;;;;;;7.75;2.03;;;14.90;99.90;;;;;;5116215;28;20403;-72
2022/07/27 02:12:35;;;;;;;8.40;1.90;;;14.80;99.90;;;;;;5129978;27;20382;-72
2022/07/27 02:15:14;;;;;;;6.53;2.00;;;14.80;99.90;;;;;;5104150;28;20039;-72
2022/07/27 02:17:41;;;;;;;7.38;1.98;;;14.80;99.90;;;;;;5095589;28;20446;-71
2022/07/27 02:20:08;;;;;;;8.93;2.28;;;14.80;99.90;;;;;;5093857;28;20400;-72
2022/07/27 02:22:34;;;;;;;8.40;1.90;;;14.80;99.90;;;;;;5095641;28;20265;-71
2022/07/27 02:24:59;;;;;;;8.82;2.20;;;15.20;99.90;;;;;;5095402;28;20512;-72
2022/07/27 02:27:26;;;;;;;5.65;1.90;;;15.40;99.90;;;;;;5107969;28;20408;-72
2022/07/27 02:29:52;;;;;;;8.00;2.00;;;14.90;99.90;;;;;;5115185;28;20051;-72
2022/07/27 02:32:18;;;;;;;9.35;2.20;;;14.90;99.90;;;;;;5114399;28;20052;-72
2022/07/27 02:34:44;;;;;;;8.75;2.30;;;14.90;99.90;;;;;;5115186;28;20065;-72
2022/07/27 02:37:10;;;;;;;7.22;2.00;;;14.90;99.90;;;;;;5115815;28;20040;-72
2022/07/27 02:39:35;;;;;;;7.40;2.10;;;14.90;99.90;;;;;;5115163;28;20041;-72
2022/07/27 02:42:02;;;;;;;6.97;2.28;;;14.90;99.90;;;;;;5115399;28;20077;-72
2022/07/27 02:44:28;;;;;;;6.88;2.40;;;14.90;99.90;;;;;;5114099;28;20088;-72
2022/07/27 02:46:53;;;;;;;9.13;2.60;;;14.90;99.90;;;;;;5115839;28;20044;-72
2022/07/27 02:49:19;;;;;;;7.88;2.50;;;14.90;99.90;;;;;;5148373;27;20059;-72
2022/07/27 02:51:49;;;;;;;7.45;2.50;;;14.90;99.90;;;;;;5114007;28;20109;-72
2022/07/27 02:54:15;;;;;;;11.05;2.72;;;14.90;99.90;;;;;;5114224;28;20032;-72
2022/07/27 02:56:40;;;;;;;8.32;2.38;;;14.90;99.90;;;;;;5113998;28;20510;-71
2022/07/27 02:59:06;;;;;;;7.70;2.17;;;14.90;99.90;;;;;;5114999;28;20035;-72
2022/07/27 03:01:31;;;;;;;8.32;2.38;;;14.90;99.90;;;;;;5114953;28;20047;-71
2022/07/27 03:03:57;;;;;;;6.13;2.38;;;15.20;99.90;;;;;;5111613;28;20078;-72
2022/07/27 03:06:23;;;;;;;6.40;2.10;;;15.00;99.90;;;;;;5094608;28;20460;-72
2022/07/27 03:08:49;;;;;;;12.63;2.38;;;15.10;99.90;;;;;;5110634;28;20044;-72
2022/07/27 03:11:15;;;;;;;6.75;2.63;;;15.60;99.90;;;;;;5113255;28;20134;-71
2022/07/27 03:13:41;;;;;;;10.20;2.25;;;14.90;99.90;;;;;;5114820;28;20073;-72
2022/07/27 03:16:07;;;;;;;6.97;2.10;;;15.00;99.90;;;;;;5114798;28;20043;-72
2022/07/27 03:18:32;;;;;;;7.97;2.63;;;15.00;99.90;;;;;;5114558;28;20050;-72
2022/07/27 03:20:58;;;;;;;8.48;2.50;;;15.30;99.90;;;;;;5111460;28;20487;-72
2022/07/27 03:23:23;;;;;;;10.95;2.53;;;15.00;99.90;;;;;;5112789;28;20118;-72
2022/07/27 03:25:49;;;;;;;7.32;2.42;;;15.10;99.90;;;;;;5110706;28;20074;-72
2022/07/27 03:28:15;;;;;;;7.32;2.10;;;15.10;99.90;;;;;;5114488;28;20452;-71
2022/07/27 03:30:40;;;;;;;6.90;2.00;;;15.00;99.90;;;;;;5113661;28;20047;-72
2022/07/27 03:33:06;;;;;;;9.07;2.03;;;15.00;99.90;;;;;;5112956;28;20104;-72
2022/07/27 03:35:32;;;;;;;6.68;2.47;;;15.00;99.90;;;;;;5114453;28;20036;-72
2022/07/27 03:37:58;;;;;;;9.95;2.20;;;15.00;99.90;;;;;;5114466;28;20043;-72
2022/07/27 03:40:24;;;;;;;8.00;2.10;;;15.10;99.90;;;;;;5104270;28;20086;-72
2022/07/27 03:42:52;;;;;;;6.28;2.10;;;15.40;99.90;;;;;;5111744;28;20436;-72
2022/07/27 03:45:18;;;;;;;8.07;2.35;;;15.00;99.90;;;;;;5146430;27;20044;-72
2022/07/27 03:47:44;;;;;;;7.70;2.30;;;15.10;99.90;;;;;;5112647;28;20047;-72
2022/07/27 03:50:09;;;;;;;9.65;2.08;;;15.10;99.90;;;;;;5114398;28;20122;-72
2022/07/27 03:52:35;;;;;;;10.10;2.50;;;15.30;99.90;;;;;;5114181;28;20127;-72
2022/07/27 03:55:00;;;;;;;5.55;2.10;;;15.20;99.90;;;;;;5113854;28;20075;-72
2022/07/27 03:57:26;;;;;;;8.02;2.20;;;15.30;99.90;;;;;;5114002;28;20047;-72
2022/07/27 03:59:52;;;;;;;10.63;2.13;;;15.00;99.90;;;;;;5147121;27;20035;-72
2022/07/27 04:02:17;;;;;;;5.25;2.20;;;15.00;99.90;;;;;;5114099;28;20044;-71
2022/07/27 04:04:43;;;;;;;10.23;2.38;;;15.10;99.90;;;;;;5113698;28;20036;-72
2022/07/27 04:07:09;;;;;;;8.98;2.30;;;15.00;99.90;;;;;;5113690;28;20039;-72
2022/07/27 04:09:36;;;;;;;7.13;2.20;;;15.00;99.90;;;;;;5113322;27;20488;-72
2022/07/27 04:12:02;;;;;;;5.95;2.00;;;15.30;99.90;;;;;;5112575;28;20065;-72
2022/07/27 04:14:28;;;;;;;5.15;1.95;;;15.00;99.90;;;;;;5091744;28;20051;-72
2022/07/27 04:16:53;;;;;;;9.18;2.17;;;15.30;99.90;;;;;;5102007;28;20119;-72
2022/07/27 04:19:19;;;;;;;7.13;2.22;;;15.10;99.90;;;;;;5112676;28;20039;-72
2022/07/27 04:21:44;;;;;;;8.98;2.30;;;15.10;99.90;;;;;;5113366;28;20062;-72
2022/07/27 04:24:10;;;;;;;7.28;2.10;;;15.10;99.90;;;;;;5113389;28;20043;-71
2022/07/27 04:26:36;;;;;;;7.85;2.22;;;15.10;99.90;;;;;;5113759;28;20042;-72
2022/07/27 04:29:02;;;;;;;7.50;2.20;;;15.00;99.90;;;;;;5113282;28;20044;-72
2022/07/27 04:31:27;;;;;;;8.88;2.45;;;15.10;99.90;;;;;;5112562;28;20052;-72
2022/07/27 04:33:53;;;;;;;8.60;2.30;;;15.00;99.90;;;;;;5112863;28;20098;-71
2022/07/27 04:36:19;;;;;;;8.48;2.35;;;15.00;99.90;;;;;;5113536;28;20097;-72
2022/07/27 04:38:44;;;;;;;11.02;2.55;;;15.00;99.90;;;;;;5112055;28;20039;-72
2022/07/27 04:41:10;;;;;;;6.82;2.15;;;14.90;99.90;;;;;;5111520;28;20086;-72
2022/07/27 04:43:36;;;;;;;9.27;2.60;;;14.90;99.90;;;;;;5112492;28;20036;-71
2022/07/27 04:46:03;;;;;;;8.85;2.40;;;14.90;99.90;;;;;;5113299;28;20044;-72
2022/07/27 04:48:32;;;;;;;12.48;2.38;;;14.90;99.90;;;;;;5095056;28;20089;-72
2022/07/27 04:50:58;;;;;;;10.43;2.58;;;15.00;99.90;;;;;;5113321;28;20404;-71
2022/07/27 04:53:24;;;;;;;7.53;2.45;;;15.10;99.90;;;;;;5113380;28;20054;-72
2022/07/27 04:55:49;;;;;;;7.75;2.25;;;15.00;99.90;;;;;;5125502;28;20044;-72
2022/07/27 04:58:15;;;;;;;8.70;2.88;;;15.00;99.90;;;;;;5112492;28;20043;-72
2022/07/27 05:00:42;;;;;;;9.68;3.15;;;15.40;99.90;;;;;;5112800;28;20100;-71
2022/07/27 05:03:08;;;;;;;10.10;2.80;;;15.30;99.90;;;;;;5113577;28;20046;-71
2022/07/27 05:05:34;;;;;;;11.82;2.83;;;15.60;99.90;;;;;;5112996;28;20138;-72
2022/07/27 05:08:00;;;;;;;10.48;2.55;;;15.10;99.90;;;;;;5113777;28;20170;-72
2022/07/27 05:10:25;;;;;;;9.30;2.72;;;15.30;99.90;;;;;;5126761;27;20032;-72
2022/07/27 05:12:51;;;;;;;8.00;2.90;;;16.00;99.90;;;;;;5113026;28;20398;-72
2022/07/27 05:15:17;;;;;;;7.65;2.50;;;15.10;99.90;;;;;;5112876;28;20035;-72
2022/07/27 05:17:43;;;;;;;7.13;2.45;;;15.60;99.90;;;;;;5112343;28;20040;-72
2022/07/27 05:20:09;;;;;;;8.05;2.72;;;15.20;99.90;;;;;;5111110;28;20172;-72
2022/07/27 05:22:35;;;;;;;6.10;2.25;;;15.20;99.90;;;;;;5113093;28;20031;-72
2022/07/27 05:25:01;;;;;;;8.15;2.55;;;15.20;99.90;;;;;;5111338;28;20051;-71
2022/07/27 05:27:26;;;;;;;7.78;2.17;;;15.20;99.90;;;;;;5095358;28;20032;-72
2022/07/27 05:29:52;;;;;;;10.45;2.97;;;15.20;99.90;;;;;;5107832;28;20507;-72
2022/07/27 05:32:18;;;;;;;5.82;2.20;;;15.70;99.90;;;;;;5111743;28;20548;-72
2022/07/27 05:34:44;;;;;;;7.07;2.00;;;15.20;99.90;;;;;;5112825;28;20543;-72
2022/07/27 05:37:11;;;;;;;7.63;2.17;;;15.20;99.90;;;;;;5111233;28;20063;-72
2022/07/27 05:39:37;;;;;;;12.95;2.67;;;15.20;99.90;;;;;;5112669;28;20035;-72
2022/07/27 05:42:04;;;;;;;7.07;2.20;;;15.20;99.90;;;;;;5111709;28;20048;-72
2022/07/27 05:44:29;;;;;;;7.78;2.17;;;15.20;99.90;;;;;;5097625;28;20043;-72
2022/07/27 05:46:55;;;;;;;9.48;2.42;;;15.30;99.90;;;;;;5092011;28;20036;-71
2022/07/27 05:49:21;;;;;;;7.38;2.10;;;15.30;99.90;;;;;;5097403;28;20507;-72
2022/07/27 05:51:47;;;;;;;5.55;1.88;;;16.10;99.90;;;;;;5094776;28;20072;-72
2022/07/27 05:54:13;;;;;;;12.90;3.30;;;15.50;99.90;;;;;;5102563;28;20035;-72
2022/07/27 05:56:40;;;;;;;8.00;3.05;;;15.50;99.90;;;;;;5116409;28;20058;-72
2022/07/27 05:59:06;;;;;;;7.03;2.17;;;15.50;99.90;;;;;;5116280;28;20039;-72
2022/07/27 06:01:32;;;;;;;9.80;2.35;;;15.60;99.90;;;;;;5114137;28;20044;-72
2022/07/27 06:03:57;;;;;;;10.82;2.25;;;16.30;99.90;;;;;;5115780;28;20039;-71
2022/07/27 06:09:07;;;;;;;9.07;2.10;;;15.80;99.90;;;;;;5115911;28;20047;-72
2022/07/27 06:11:32;;;;;;;8.20;1.98;;;15.90;99.90;;;;;;5115958;28;20042;-72
2022/07/27 06:13:58;;;;;;;9.25;2.10;;;16.00;99.90;;;;;;5115377;28;20148;-71
2022/07/27 06:16:24;;;;;;;10.93;2.38;;;16.00;99.90;;;;;;5115273;28;20039;-72
2022/07/27 06:18:49;;;;;;;8.93;2.22;;;16.10;99.90;;;;;;5113817;27;20523;-71
2022/07/27 06:21:15;;;;;;;7.90;1.92;;;16.20;99.90;;;;;;5113905;28;20453;-72
2022/07/27 06:23:41;;;;;;;9.20;2.20;;;16.60;99.90;;;;;;5115347;28;20433;-72
2022/07/27 06:26:07;;;;;;;8.93;2.20;;;16.20;99.90;;;;;;5107691;28;20047;-72
2022/07/27 06:28:32;;;;;;;11.02;2.20;;;16.30;99.90;;;;;;5095032;28;20086;-72
2022/07/27 06:30:58;;;;;;;12.07;2.17;;;16.30;99.90;;;;;;5101835;28;20055;-72
2022/07/27 06:33:27;;;;;;;14.18;2.30;;;16.90;99.90;;;;;;5122609;27;20056;-72
2022/07/27 06:35:58;;;;;;;8.15;2.08;;;16.40;99.90;;;;;;5125954;27;20054;-72
2022/07/27 06:38:23;;;;;;;10.10;2.20;;;16.40;99.90;;;;;;5136062;27;20070;-72
2022/07/27 06:40:52;;;;;;;13.82;2.10;;;17.10;99.90;;;;;;5132788;27;20509;-72
2022/07/27 06:43:19;;;;;;;7.28;1.60;;;16.40;99.90;;;;;;5133422;27;20043;-72
2022/07/27 06:45:45;;;;;;;6.35;1.90;;;16.60;99.90;;;;;;5135940;27;20436;-72
2022/07/27 06:48:10;;;;;;;9.55;1.80;;;16.50;99.90;;;;;;5136010;27;20039;-72
2022/07/27 06:50:36;;;;;;;9.65;2.03;;;16.70;99.90;;;;;;5119895;27;20054;-72
2022/07/27 06:53:02;;;;;;;7.72;2.17;;;16.40;99.90;;;;;;5113637;28;20128;-71
2022/07/27 06:55:28;;;;;;;7.68;1.98;;;16.50;99.90;;;;;;5113514;28;20035;-72
2022/07/27 06:57:54;;;;;;;8.32;1.92;;;16.60;99.90;;;;;;5113367;28;20048;-72
2022/07/27 07:00:20;;;;;;;8.77;1.80;;;16.80;99.90;;;;;;5114574;28;20040;-72
2022/07/27 07:03:05;;;;;;;6.88;1.70;;;16.50;99.90;;;;;;5115145;27;20136;-72
2022/07/27 07:05:33;;;;;;;5.57;1.88;;;16.50;99.90;;;;;;5120224;27;20048;-71
2022/07/27 07:08:00;;;;;;;8.35;2.10;;;16.60;99.90;;;;;;5115002;28;20397;-72
2022/07/27 07:10:26;;;;;;;6.80;1.55;;;16.60;99.90;;;;;;5111185;28;20182;-72
2022/07/27 07:12:56;;;;;;;8.50;1.88;;;16.60;99.90;;;;;;5099964;28;20050;-72
2022/07/27 07:15:24;;;;;;;6.28;1.63;;;16.70;99.90;;;;;;5094864;28;20058;-71
2022/07/27 07:17:49;;;;;;;8.88;1.65;;;16.80;99.90;;;;;;5114075;28;20047;-72
2022/07/27 07:20:15;;;;;;;7.88;1.77;;;16.80;99.90;;;;;;5114390;28;20446;-71
2022/07/27 07:22:41;;;;;;;7.13;1.80;;;17.00;99.90;;;;;;5114396;28;20383;-72
2022/07/27 07:25:07;;;;;;;7.72;1.70;;;17.10;99.90;;;;;;5095306;28;20044;-72
2022/07/27 07:27:33;;;;;;;6.68;1.65;;;17.30;99.90;;;;;;5112608;28;20035;-73
2022/07/27 07:29:58;;;;;;;6.82;2.25;;;17.50;99.90;;;;;;5106087;28;20056;-72
2022/07/27 07:32:24;;;;;;;6.32;1.73;;;17.40;99.90;;;;;;5103667;28;20399;-73
2022/07/27 07:34:51;;;;;;;6.22;1.75;;;17.40;99.90;;;;;;5099473;28;20425;-72
2022/07/27 07:37:18;;;;;;;8.20;2.10;;;17.40;99.90;;;;;;5099871;28;20046;-71
2022/07/27 07:39:44;;;;;;;5.63;2.00;;;17.30;99.90;;;;;;5105224;28;20067;-72
2022/07/27 07:42:10;;;;;;;7.35;1.90;;;17.20;99.90;;;;;;5113016;28;20122;-73
2022/07/27 07:44:36;;;;;;;5.68;1.77;;;17.20;99.90;;;;;;5113177;27;20126;-73
2022/07/27 07:47:02;;;;;;;9.30;2.35;;;17.30;99.90;;;;;;5112977;28;20071;-70
2022/07/27 07:49:27;;;;;;;8.50;1.73;;;17.40;99.90;;;;;;5118950;27;20467;-71
2022/07/27 07:51:53;;;;;;;6.45;1.80;;;17.60;99.90;;;;;;5132138;27;20051;-71
2022/07/27 07:54:19;;;;;;;6.88;1.92;;;17.60;99.90;;;;;;5113264;28;20484;-71
2022/07/27 07:56:44;;;;;;;9.43;2.17;;;17.80;99.90;;;;;;5108419;28;20044;-70
2022/07/27 07:59:10;;;;;;;7.00;1.83;;;17.80;99.90;;;;;;5100263;28;20042;-70
2022/07/27 08:01:35;;;;;;;5.68;1.98;;;17.80;99.90;;;;;;5108794;27;20123;-71
2022/07/27 08:04:01;;;;;;;5.95;1.80;;;17.60;99.90;;;;;;5112707;28;20100;-70
2022/07/27 08:06:27;;;;;;;5.22;1.80;;;17.60;99.90;;;;;;5112977;28;20111;-70
2022/07/27 08:08:53;;;;;;;5.93;1.90;;;17.70;99.90;;;;;;5113452;28;20590;-70
2022/07/27 08:11:19;;;;;;;10.07;2.00;;;17.80;99.90;;;;;;5112069;28;20036;-71
2022/07/27 08:13:44;;;;;;;4.68;1.83;;;17.80;99.90;;;;;;5113072;28;20237;-71
2022/07/27 08:16:10;;;;;;;8.82;1.90;;;17.80;99.90;;;;;;5112329;28;20361;-71
2022/07/27 08:18:36;;;;;;;9.88;2.30;;;17.90;99.90;;;;;;5111815;28;20153;-71
2022/07/27 08:21:01;;;;;;;7.55;2.55;;;17.90;99.90;;;;;;5142240;27;20041;-71
2022/07/27 08:23:27;;;;;;;5.70;1.70;;;18.00;99.90;;;;;;5099747;28;20036;-70
2022/07/27 08:25:53;;;;;;;5.25;1.90;;;18.10;99.90;;;;;;5092666;28;20044;-70
2022/07/27 08:28:18;;;;;;;6.28;1.52;;;18.00;99.90;;;;;;5109390;28;20043;-70
2022/07/27 08:30:45;;;;;;;10.65;1.92;;;18.10;99.90;;;;;;5142512;27;20055;-72
2022/07/27 08:33:10;;;;;;;11.25;1.98;;;18.10;99.90;;;;;;5113406;28;20089;-71
2022/07/27 08:35:36;;;;;;;6.30;1.83;;;18.00;99.90;;;;;;5103519;28;20036;-72
2022/07/27 08:38:04;;;;;;;9.45;1.90;;;18.40;99.90;;;;;;5101177;28;20113;-71
2022/07/27 08:40:30;;;;;;;8.23;1.67;;;18.20;99.90;;;;;;5109223;28;20031;-70
2022/07/27 08:42:58;;;;;;;5.30;1.60;;;18.20;99.90;;;;;;5123659;28;20035;-69
2022/07/27 08:45:23;;;;;;;7.30;1.70;;;18.20;99.90;;;;;;5133204;27;20043;-70
2022/07/27 08:47:49;;;;;;;6.65;1.60;;;18.10;99.90;;;;;;5113471;28;20061;-69
2022/07/27 08:50:23;;;;;;;5.15;1.52;;;18.30;99.90;;;;;;5113033;28;20099;-69
2022/07/27 08:52:58;;;;;;;5.55;1.50;;;18.30;99.90;;;;;;5112288;28;20057;-69
2022/07/27 08:55:25;;;;;;;5.80;1.70;;;18.40;99.90;;;;;;5108812;28;20055;-69
2022/07/27 08:57:51;;;;;;;4.35;1.50;;;18.60;99.90;;;;;;5106156;28;20036;-69
2022/07/27 09:00:17;;;;;;;7.45;1.58;;;18.70;99.90;;;;;;5113035;28;20044;-72
2022/07/27 09:02:44;;;;;;;5.07;2.10;;;19.00;99.90;;;;;;5112873;28;20263;-69
2022/07/27 09:05:10;;;;;;;4.85;1.33;;;19.30;99.90;;;;;;5103700;28;20046;-69
2022/07/27 09:07:36;;;;;;;8.07;1.52;;;19.60;99.90;;;;;;5110905;28;20039;-69
2022/07/27 09:10:03;;;;;;;6.70;1.60;;;19.80;99.90;;;;;;5109050;28;20488;-71
2022/07/27 09:12:30;;;;;;;3.15;1.52;;;20.20;99.90;;;;;;5110162;28;20135;-71
2022/07/27 09:15:08;;;;;;;4.22;1.38;;;20.60;99.90;;;;;;5099447;28;20113;-69
2022/07/27 09:17:35;;;;;;;9.88;1.85;;;21.10;99.90;;;;;;5100771;28;20052;-69
2022/07/27 09:20:10;;;;;;;5.35;1.60;;;21.50;99.90;;;;;;5101246;28;20051;-69
2022/07/27 09:22:54;;;;;;;;;;;21.80;99.90;;;;;;5092394;28;20036;-69
2022/07/27 09:25:32;;;;;;;6.20;1.40;;;21.80;98.10;;;;;;5091698;28;19923;-69
2022/07/27 09:27:58;;;;;;;8.57;1.45;;;22.10;97.50;;;;;;5112628;28;20040;-69
2022/07/27 09:30:26;;;;;;;4.68;1.50;;;22.20;98.30;;;;;;5107211;27;20135;-69
2022/07/27 09:33:01;;;;;;;3.08;1.40;;;22.30;97.20;;;;;;5116138;28;20055;-69
2022/07/27 09:35:29;;;;;;;6.88;1.40;;;22.20;97.10;;;;;;5105088;28;20040;-69
2022/07/27 09:38:14;;;;;;;5.90;1.48;;;22.50;97.50;;;;;;5106820;28;20402;-71
2022/07/27 09:40:40;;;;;;;4.07;1.60;;;22.80;97.40;;;;;;5096151;28;20123;-71
2022/07/27 09:43:11;;;;;;;4.63;1.50;;;22.90;97.20;;;;;;5095962;28;20067;-71
2022/07/27 09:45:38;;;;;;;3.83;1.50;;;22.90;96.80;;;;;;5106175;28;20044;-72
2022/07/27 09:48:17;;;;;;;3.30;1.30;;;23.00;97.00;;;;;;5113383;27;20036;-71
2022/07/27 09:50:52;;;;;;;5.43;1.48;;;23.10;96.70;;;;;;5096480;28;20048;-71
2022/07/27 09:53:22;;;;;;;7.03;1.45;;;23.20;96.50;;;;;;5115521;28;20052;-71
2022/07/27 09:56:07;;;;;;;6.28;1.30;;;23.20;96.70;;;;;;5116152;28;20114;-71
2022/07/27 09:58:48;;;;;;;3.60;1.30;;;23.10;96.20;;;;;;5116411;28;20063;-71
2022/07/27 10:01:16;;;;;;;3.95;1.50;;;22.80;96.50;;;;;;5148909;27;20094;-71
2022/07/27 10:03:44;;;;;;;6.07;1.70;;;22.70;96.60;;;;;;5114767;28;20173;-71
2022/07/27 10:06:11;;;;;;;4.57;1.40;;;22.60;96.50;;;;;;5098263;28;20068;-72
2022/07/27 10:08:39;;;;;;;6.18;1.50;;;23.20;96.70;;;;;;5094487;28;20047;-71
2022/07/27 10:11:06;;;;;;;3.20;1.33;;;23.90;95.80;;;;;;5093837;28;20055;-71
2022/07/27 10:13:32;;;;;;;5.85;1.40;;;24.00;95.20;;;;;;5075914;28;20055;-71
2022/07/27 10:16:00;;;;;;;4.35;1.70;;;23.80;94.90;;;;;;5095273;28;20051;-71
2022/07/27 10:18:51;;;;;;;2.67;1.20;;;23.50;95.10;;;;;;5095297;28;20047;-71
2022/07/27 10:21:16;;;;;;;2.90;1.38;;;22.80;94.90;;;;;;5095060;28;20051;-71
2022/07/27 10:23:57;;;;;;;4.38;1.45;;;22.50;95.70;;;;;;5095203;28;20389;-71
2022/07/27 10:26:22;;;;;;;3.50;1.20;;;22.90;95.70;;;;;;5094969;28;20056;-71
2022/07/27 10:29:00;;;;;;;4.68;1.40;;;23.90;94.80;;;;;;5094466;28;20058;-71
2022/07/27 10:31:31;;;;;;;3.83;1.17;;;24.00;93.70;;;;;;5092982;28;20056;-72
2022/07/27 10:34:01;;;;;;;5.07;1.20;;;23.50;93.70;;;;;;5093207;28;20044;-72
2022/07/27 10:36:30;;;;;;;2.28;0.90;;;23.10;94.10;;;;;;5095102;28;20051;-71
2022/07/27 10:38:59;;;;;;;4.55;1.27;;;22.70;94.50;;;;;;5094659;28;20036;-71
2022/07/27 10:41:30;;;;;;;4.53;1.40;;;22.40;95.10;;;;;;5094425;28;20475;-71
2022/07/27 10:44:15;;;;;;;4.65;1.30;;;22.20;95.50;;;;;;5094248;28;20115;-71
2022/07/27 10:47:01;;;;;;;6.00;1.45;;;22.10;95.50;;;;;;5093144;28;20048;-71
2022/07/27 10:49:36;;;;;;;2.60;1.20;;;22.00;96.00;;;;;;5094886;28;20040;-71
2022/07/27 10:52:03;;;;;;;5.72;1.30;;;22.00;96.10;;;;;;5094448;28;20047;-71
2022/07/27 10:54:37;;;;;;;2.90;1.13;;;22.10;95.90;;;;;;5076381;28;20365;-71
2022/07/27 10:57:05;;;;;;;3.65;1.40;;;22.40;96.00;;;;;;5094746;28;20043;-71
2022/07/27 10:59:43;;;;;;;6.00;1.30;;;22.70;95.80;;;;;;5093158;28;20131;-72
2022/07/27 11:02:10;;;;;;;2.60;1.02;;;23.40;95.30;;;;;;5093748;28;20052;-72
2022/07/27 11:05:03;;;;;;;5.68;1.20;;;24.30;94.50;;;;;;5094371;28;20043;-72
2022/07/27 11:07:29;;;;;;;4.38;1.08;;;25.20;93.00;;;;;;5091903;28;20071;-72
2022/07/27 11:09:55;;;;;;;3.72;1.00;;;24.90;92.90;;;;;;5094348;28;20040;-72
2022/07/27 11:12:26;;;;;;;4.32;1.50;;;24.50;93.00;;;;;;5093838;28;20086;-72
2022/07/27 11:14:54;;;;;;;6.95;1.40;;;24.30;93.50;;;;;;5094138;28;20047;-72
2022/07/27 11:17:26;;;;;;;2.92;1.20;;;25.10;93.70;;;;;;5094502;28;20036;-71
2022/07/27 11:20:01;;;;;;;5.28;1.17;;;25.50;93.10;;;;;;5094285;28;20048;-72
2022/07/27 11:22:33;;;;;;;3.43;1.27;;;25.20;93.20;;;;;;5076193;28;20036;-71
2022/07/27 11:25:00;;;;;;;4.70;1.33;;;24.70;93.80;;;;;;5093752;28;20082;-71
2022/07/27 11:27:27;;;;;;;4.10;1.40;;;24.30;94.10;;;;;;5093764;28;20057;-71
2022/07/27 11:29:53;;;;;;;2.63;1.15;;;23.40;94.40;;;;;;5091969;28;20064;-70
2022/07/27 11:32:20;;;;;;;7.15;1.38;;;23.10;94.70;;;;;;5126175;27;20126;-70
2022/07/27 11:34:46;;;;;;;2.38;1.10;;;22.90;95.10;;;;;;5093411;28;20089;-70
2022/07/27 11:37:22;;;;;;;5.07;1.40;;;22.70;95.50;;;;;;5093658;28;20354;-71
2022/07/27 11:39:57;;;;;;;5.03;1.58;;;22.70;95.50;;;;;;5093420;28;20084;-71
2022/07/27 11:42:23;;;;;;;2.88;1.35;;;24.90;94.30;;;;;;5092642;28;20044;-71
2022/07/27 11:44:49;;;;;;;3.03;1.40;;;26.10;93.40;;;;;;5093510;28;20043;-70
2022/07/27 11:47:19;;;;;;;3.95;1.10;;;25.90;92.80;;;;;;5075504;28;20047;-70
2022/07/27 11:49:45;;;;;;;3.65;1.13;;;25.20;93.00;;;;;;5093428;28;20040;-71
2022/07/27 11:52:11;;;;;;;5.00;1.35;;;24.70;93.80;;;;;;5108192;28;20541;-70
2022/07/27 11:54:39;;;;;;;2.78;1.00;;;24.60;94.10;;;;;;5091583;28;20043;-70
2022/07/27 11:57:12;;;;;;;3.70;1.30;;;24.50;94.20;;;;;;5093244;28;20507;-70
2022/07/27 11:59:40;;;;;;;4.57;1.40;;;24.40;94.30;;;;;;5093382;28;20051;-71
2022/07/27 12:02:08;;;;;;;4.88;1.35;;;23.90;94.30;;;;;;5093130;28;20032;-71
2022/07/27 12:04:38;;;;;;;4.72;1.58;;;23.90;94.60;;;;;;5091598;28;20044;-70
2022/07/27 12:07:10;;;;;;;4.25;1.55;;;23.70;94.80;;;;;;5093471;28;20078;-71
2022/07/27 12:09:55;;;;;;;12.73;1.92;;;23.50;95.30;;;;;;5091763;28;20048;-71
2022/07/27 12:12:27;;;;;;;;;;;23.60;95.50;;;;;;5092593;28;20081;-71
2022/07/27 12:15:01;;;;;;;5.45;1.45;;;24.70;94.70;;;;;;5093010;28;19924;-71
2022/07/27 12:17:35;;;;;;;7.70;1.58;;;24.90;94.30;;;;;;5092061;28;20040;-72
2022/07/27 12:20:17;;;;;;;2.03;1.20;;;27.10;94.10;;;;;;5091829;28;20063;-71
2022/07/27 12:22:44;;;;;;;4.75;1.42;;;27.80;92.10;;;;;;5093101;28;20047;-72
2022/07/27 12:25:13;;;;;;;3.58;1.10;;;27.20;91.90;;;;;;5092850;28;20079;-71
2022/07/27 12:27:39;;;;;;;4.80;1.40;;;26.40;92.30;;;;;;5092892;28;20040;-71
2022/07/27 12:30:08;;;;;;;7.47;2.10;;;26.00;92.70;;;;;;5092565;28;20381;-71
2022/07/27 12:32:40;;;;;;;5.85;1.75;;;25.60;92.80;;;;;;5092982;28;20047;-71
2022/07/27 12:35:24;;;;;;;6.53;2.03;;;25.40;93.10;;;;;;5092613;28;20032;-73
2022/07/27 12:38:05;;;;;;;5.88;1.30;;;25.30;93.00;;;;;;5091729;28;20086;-71
2022/07/27 12:40:32;;;;;;;3.47;1.35;;;25.20;93.00;;;;;;5090845;28;20078;-71
2022/07/27 12:43:04;;;;;;;6.38;1.65;;;25.20;93.30;;;;;;5123795;27;20044;-71
2022/07/27 12:45:35;;;;;;;3.85;1.42;;;25.20;93.10;;;;;;5091842;28;20062;-71
2022/07/27 12:48:25;;;;;;;4.63;1.30;;;25.00;93.00;;;;;;5092036;28;20043;-71
2022/07/27 12:51:09;;;;;;;4.45;1.42;;;24.70;93.10;;;;;;5091541;28;20040;-71